sensor_id;sensor_type;location;lat;lon;timestamp;temperature;humidity
51175;DHT22;37240;50.104;20.010;2024-01-06T00:00:01;5.40;99.90
51175;DHT22;37240;50.104;20.010;2024-01-06T00:05:01;5.40;99.90
51175;DHT22;37240;50.104;20.010;2024-01-06T00:10:02;5.40;99.90
51175;DHT22;37240;50.104;20.010;2024-01-06T00:15:03;5.30;99.90
51175;DHT22;37240;50.104;20.010;2024-01-06T00:20:05;5.30;99.90
51175;DHT22;37240;50.104;20.010;2024-01-06T00:25:06;5.30;99.90
51175;DHT22;37240;50.104;20.010;2024-01-06T00:30:06;5.30;99.90
51175;DHT22;37240;50.104;20.010;2024-01-06T00:35:07;5.30;99.90
51175;DHT22;37240;50.104;20.010;2024-01-06T00:40:08;5.40;99.90
51175;DHT22;37240;50.104;20.010;2024-01-06T00:45:09;5.40;99.90
51175;DHT22;37240;50.104;20.010;2024-01-06T00:50:09;5.40;99.90
51175;DHT22;37240;50.104;20.010;2024-01-06T00:55:10;5.40;99.90
51175;DHT22;37240;50.104;20.010;2024-01-06T01:00:11;5.40;99.90
51175;DHT22;37240;50.104;20.010;2024-01-06T01:05:12;5.40;99.90
51175;DHT22;37240;50.104;20.010;2024-01-06T01:10:13;5.40;99.90
51175;DHT22;37240;50.104;20.010;2024-01-06T01:15:13;5.40;99.90
51175;DHT22;37240;50.104;20.010;2024-01-06T01:20:14;5.30;99.90
51175;DHT22;37240;50.104;20.010;2024-01-06T01:25:14;5.50;99.90
51175;DHT22;37240;50.104;20.010;2024-01-06T01:30:15;5.40;99.90
51175;DHT22;37240;50.104;20.010;2024-01-06T01:35:15;5.50;99.90
51175;DHT22;37240;50.104;20.010;2024-01-06T01:40:16;5.50;99.90
51175;DHT22;37240;50.104;20.010;2024-01-06T01:45:16;5.40;99.90
51175;DHT22;37240;50.104;20.010;2024-01-06T01:50:17;5.40;99.90
51175;DHT22;37240;50.104;20.010;2024-01-06T01:55:18;5.40;99.90
51175;DHT22;37240;50.104;20.010;2024-01-06T02:00:18;5.30;99.90
51175;DHT22;37240;50.104;20.010;2024-01-06T02:05:19;5.30;99.90
51175;DHT22;37240;50.104;20.010;2024-01-06T02:10:19;5.40;99.90
51175;DHT22;37240;50.104;20.010;2024-01-06T02:15:20;5.40;99.90
51175;DHT22;37240;50.104;20.010;2024-01-06T02:20:21;5.40;99.90
51175;DHT22;37240;50.104;20.010;2024-01-06T02:25:22;5.40;99.90
51175;DHT22;37240;50.104;20.010;2024-01-06T02:30:22;5.50;99.90
51175;DHT22;37240;50.104;20.010;2024-01-06T02:35:23;5.60;99.90
51175;DHT22;37240;50.104;20.010;2024-01-06T02:40:23;5.40;99.90
51175;DHT22;37240;50.104;20.010;2024-01-06T02:45:24;5.30;99.90
51175;DHT22;37240;50.104;20.010;2024-01-06T02:50:24;5.40;99.90
51175;DHT22;37240;50.104;20.010;2024-01-06T02:55:25;5.40;99.90
51175;DHT22;37240;50.104;20.010;2024-01-06T03:00:25;5.40;99.90
51175;DHT22;37240;50.104;20.010;2024-01-06T03:05:26;5.50;99.90
51175;DHT22;37240;50.104;20.010;2024-01-06T03:10:26;5.50;99.90
51175;DHT22;37240;50.104;20.010;2024-01-06T03:15:27;5.50;99.90
51175;DHT22;37240;50.104;20.010;2024-01-06T03:20:27;5.50;99.90
51175;DHT22;37240;50.104;20.010;2024-01-06T03:25:28;5.60;99.90
51175;DHT22;37240;50.104;20.010;2024-01-06T03:30:28;5.40;99.90
51175;DHT22;37240;50.104;20.010;2024-01-06T03:35:29;5.40;99.90
51175;DHT22;37240;50.104;20.010;2024-01-06T03:40:29;5.40;99.90
51175;DHT22;37240;50.104;20.010;2024-01-06T03:45:30;5.40;99.90
51175;DHT22;37240;50.104;20.010;2024-01-06T03:50:30;5.40;99.90
51175;DHT22;37240;50.104;20.010;2024-01-06T03:55:31;5.40;99.90
51175;DHT22;37240;50.104;20.010;2024-01-06T04:00:32;5.50;99.90
51175;DHT22;37240;50.104;20.010;2024-01-06T04:05:32;5.40;99.90
51175;DHT22;37240;50.104;20.010;2024-01-06T04:10:33;5.40;99.90
51175;DHT22;37240;50.104;20.010;2024-01-06T04:15:34;5.40;99.90
51175;DHT22;37240;50.104;20.010;2024-01-06T04:20:34;5.50;99.90
51175;DHT22;37240;50.104;20.010;2024-01-06T04:25:35;5.50;99.90
51175;DHT22;37240;50.104;20.010;2024-01-06T04:30:35;5.60;99.90
51175;DHT22;37240;50.104;20.010;2024-01-06T04:35:36;5.60;99.90
51175;DHT22;37240;50.104;20.010;2024-01-06T04:40:36;5.50;99.90
51175;DHT22;37240;50.104;20.010;2024-01-06T04:45:37;5.60;99.90
51175;DHT22;37240;50.104;20.010;2024-01-06T04:50:37;5.60;99.90
51175;DHT22;37240;50.104;20.010;2024-01-06T04:55:38;5.60;99.90
51175;DHT22;37240;50.104;20.010;2024-01-06T05:00:38;5.70;99.90
51175;DHT22;37240;50.104;20.010;2024-01-06T05:05:39;5.70;99.90
51175;DHT22;37240;50.104;20.010;2024-01-06T05:10:39;5.80;99.90
51175;DHT22;37240;50.104;20.010;2024-01-06T05:15:40;5.70;99.90
51175;DHT22;37240;50.104;20.010;2024-01-06T05:20:40;5.80;99.90
51175;DHT22;37240;50.104;20.010;2024-01-06T05:25:41;5.90;99.90
51175;DHT22;37240;50.104;20.010;2024-01-06T05:30:41;5.90;99.90
51175;DHT22;37240;50.104;20.010;2024-01-06T05:35:42;5.90;99.90
51175;DHT22;37240;50.104;20.010;2024-01-06T05:40:42;5.80;99.90
51175;DHT22;37240;50.104;20.010;2024-01-06T05:45:43;5.90;99.90
51175;DHT22;37240;50.104;20.010;2024-01-06T05:50:44;6.00;99.90
51175;DHT22;37240;50.104;20.010;2024-01-06T05:55:45;5.90;99.90
51175;DHT22;37240;50.104;20.010;2024-01-06T06:00:45;6.00;99.90
51175;DHT22;37240;50.104;20.010;2024-01-06T06:05:46;5.90;99.90
51175;DHT22;37240;50.104;20.010;2024-01-06T06:10:46;5.90;99.90
51175;DHT22;37240;50.104;20.010;2024-01-06T06:15:47;5.90;99.90
51175;DHT22;37240;50.104;20.010;2024-01-06T06:20:47;5.90;99.90
51175;DHT22;37240;50.104;20.010;2024-01-06T06:25:48;5.90;99.90
51175;DHT22;37240;50.104;20.010;2024-01-06T06:30:48;5.90;99.90
51175;DHT22;37240;50.104;20.010;2024-01-06T06:35:49;5.90;99.90
51175;DHT22;37240;50.104;20.010;2024-01-06T06:40:49;5.90;99.90
51175;DHT22;37240;50.104;20.010;2024-01-06T06:45:50;6.00;99.90
51175;DHT22;37240;50.104;20.010;2024-01-06T06:50:50;6.00;99.90
51175;DHT22;37240;50.104;20.010;2024-01-06T06:55:51;5.80;99.90
51175;DHT22;37240;50.104;20.010;2024-01-06T07:00:51;5.80;99.90
51175;DHT22;37240;50.104;20.010;2024-01-06T07:05:52;5.80;99.90
51175;DHT22;37240;50.104;20.010;2024-01-06T07:10:52;5.80;99.90
51175;DHT22;37240;50.104;20.010;2024-01-06T07:15:53;6.00;99.90
51175;DHT22;37240;50.104;20.010;2024-01-06T07:20:53;5.80;99.90
51175;DHT22;37240;50.104;20.010;2024-01-06T07:25:55;5.90;99.90
51175;DHT22;37240;50.104;20.010;2024-01-06T07:30:56;5.90;99.90
51175;DHT22;37240;50.104;20.010;2024-01-06T07:35:56;6.00;99.90
51175;DHT22;37240;50.104;20.010;2024-01-06T07:40:57;6.00;99.90
51175;DHT22;37240;50.104;20.010;2024-01-06T07:45:57;6.10;99.90
51175;DHT22;37240;50.104;20.010;2024-01-06T07:50:58;6.10;99.90
51175;DHT22;37240;50.104;20.010;2024-01-06T07:55:58;6.10;99.90
51175;DHT22;37240;50.104;20.010;2024-01-06T08:00:59;6.10;99.90
51175;DHT22;37240;50.104;20.010;2024-01-06T08:06:00;6.10;99.90
51175;DHT22;37240;50.104;20.010;2024-01-06T08:11:00;6.10;99.90
51175;DHT22;37240;50.104;20.010;2024-01-06T08:16:01;6.00;99.90
51175;DHT22;37240;50.104;20.010;2024-01-06T08:21:02;6.00;99.90
51175;DHT22;37240;50.104;20.010;2024-01-06T08:26:02;6.10;99.90
51175;DHT22;37240;50.104;20.010;2024-01-06T08:31:03;6.20;99.90
51175;DHT22;37240;50.104;20.010;2024-01-06T08:36:05;6.30;99.90
51175;DHT22;37240;50.104;20.010;2024-01-06T08:41:05;6.30;99.90
51175;DHT22;37240;50.104;20.010;2024-01-06T08:46:06;6.30;99.90
51175;DHT22;37240;50.104;20.010;2024-01-06T08:51:06;6.30;99.90
51175;DHT22;37240;50.104;20.010;2024-01-06T08:56:08;6.30;99.90
51175;DHT22;37240;50.104;20.010;2024-01-06T09:01:09;6.20;99.90
51175;DHT22;37240;50.104;20.010;2024-01-06T09:06:09;6.30;99.90
51175;DHT22;37240;50.104;20.010;2024-01-06T09:11:10;6.20;99.90
51175;DHT22;37240;50.104;20.010;2024-01-06T09:16:10;6.10;99.90
51175;DHT22;37240;50.104;20.010;2024-01-06T09:21:11;6.10;99.90
51175;DHT22;37240;50.104;20.010;2024-01-06T09:26:11;6.10;99.90
51175;DHT22;37240;50.104;20.010;2024-01-06T09:31:12;6.20;99.90
51175;DHT22;37240;50.104;20.010;2024-01-06T09:36:13;6.20;99.90
51175;DHT22;37240;50.104;20.010;2024-01-06T09:41:13;6.20;99.90
51175;DHT22;37240;50.104;20.010;2024-01-06T09:51:20;6.40;99.90
51175;DHT22;37240;50.104;20.010;2024-01-06T09:56:21;6.40;99.90
51175;DHT22;37240;50.104;20.010;2024-01-06T10:01:24;6.40;99.90
51175;DHT22;37240;50.104;20.010;2024-01-06T10:06:24;6.40;99.90
51175;DHT22;37240;50.104;20.010;2024-01-06T10:11:25;6.50;99.90
51175;DHT22;37240;50.104;20.010;2024-01-06T10:16:25;6.50;99.90
51175;DHT22;37240;50.104;20.010;2024-01-06T10:21:26;6.60;99.90
51175;DHT22;37240;50.104;20.010;2024-01-06T10:26:27;6.60;99.90
51175;DHT22;37240;50.104;20.010;2024-01-06T10:31:29;6.70;99.90
51175;DHT22;37240;50.104;20.010;2024-01-06T10:36:29;6.70;99.90
51175;DHT22;37240;50.104;20.010;2024-01-06T10:41:30;6.70;99.90
51175;DHT22;37240;50.104;20.010;2024-01-06T10:46:31;6.70;99.90
51175;DHT22;37240;50.104;20.010;2024-01-06T10:51:33;6.60;99.90
51175;DHT22;37240;50.104;20.010;2024-01-06T10:56:38;6.60;99.90
51175;DHT22;37240;50.104;20.010;2024-01-06T11:01:39;6.70;99.90
51175;DHT22;37240;50.104;20.010;2024-01-06T11:06:40;6.70;99.90
51175;DHT22;37240;50.104;20.010;2024-01-06T11:11:41;6.70;99.90
51175;DHT22;37240;50.104;20.010;2024-01-06T11:16:41;6.70;99.90
51175;DHT22;37240;50.104;20.010;2024-01-06T11:21:42;6.70;99.90
51175;DHT22;37240;50.104;20.010;2024-01-06T11:26:44;6.70;99.90
51175;DHT22;37240;50.104;20.010;2024-01-06T11:42:45;6.80;99.90
51175;DHT22;37240;50.104;20.010;2024-01-06T11:47:48;6.80;99.90
51175;DHT22;37240;50.104;20.010;2024-01-06T11:52:49;6.70;99.90
51175;DHT22;37240;50.104;20.010;2024-01-06T11:57:49;6.70;99.90
51175;DHT22;37240;50.104;20.010;2024-01-06T12:02:50;6.70;99.90
51175;DHT22;37240;50.104;20.010;2024-01-06T12:07:59;6.80;99.90
51175;DHT22;37240;50.104;20.010;2024-01-06T12:13:03;6.90;99.90
51175;DHT22;37240;50.104;20.010;2024-01-06T12:18:05;6.80;99.90
51175;DHT22;37240;50.104;20.010;2024-01-06T12:23:06;6.80;99.90
51175;DHT22;37240;50.104;20.010;2024-01-06T12:28:06;6.80;99.90
51175;DHT22;37240;50.104;20.010;2024-01-06T12:33:07;6.80;99.90
51175;DHT22;37240;50.104;20.010;2024-01-06T12:38:11;6.80;99.90
51175;DHT22;37240;50.104;20.010;2024-01-06T12:43:11;6.80;99.90
51175;DHT22;37240;50.104;20.010;2024-01-06T12:48:12;6.80;99.90
51175;DHT22;37240;50.104;20.010;2024-01-06T12:53:12;6.80;99.90
51175;DHT22;37240;50.104;20.010;2024-01-06T12:58:13;6.70;99.90
51175;DHT22;37240;50.104;20.010;2024-01-06T13:03:14;6.70;99.90
51175;DHT22;37240;50.104;20.010;2024-01-06T13:08:14;6.80;99.90
51175;DHT22;37240;50.104;20.010;2024-01-06T13:13:15;6.70;99.90
51175;DHT22;37240;50.104;20.010;2024-01-06T13:18:15;6.70;99.90
51175;DHT22;37240;50.104;20.010;2024-01-06T13:23:16;6.70;99.90
51175;DHT22;37240;50.104;20.010;2024-01-06T13:28:16;6.70;99.90
51175;DHT22;37240;50.104;20.010;2024-01-06T13:33:17;6.70;99.90
51175;DHT22;37240;50.104;20.010;2024-01-06T13:38:17;6.60;99.90
51175;DHT22;37240;50.104;20.010;2024-01-06T13:43:18;6.60;99.90
51175;DHT22;37240;50.104;20.010;2024-01-06T13:48:18;6.50;99.90
51175;DHT22;37240;50.104;20.010;2024-01-06T13:53:19;6.50;99.90
51175;DHT22;37240;50.104;20.010;2024-01-06T13:58:19;6.50;99.90
51175;DHT22;37240;50.104;20.010;2024-01-06T14:03:20;6.50;99.90
51175;DHT22;37240;50.104;20.010;2024-01-06T14:08:21;6.50;99.90
51175;DHT22;37240;50.104;20.010;2024-01-06T14:13:21;6.40;99.90
51175;DHT22;37240;50.104;20.010;2024-01-06T14:18:22;6.40;99.90
51175;DHT22;37240;50.104;20.010;2024-01-06T14:23:22;6.30;99.90
51175;DHT22;37240;50.104;20.010;2024-01-06T14:28:23;6.40;99.90
51175;DHT22;37240;50.104;20.010;2024-01-06T14:33:23;6.30;99.90
51175;DHT22;37240;50.104;20.010;2024-01-06T14:38:24;6.30;99.90
51175;DHT22;37240;50.104;20.010;2024-01-06T14:43:24;6.30;99.90
51175;DHT22;37240;50.104;20.010;2024-01-06T14:48:25;6.30;99.90
51175;DHT22;37240;50.104;20.010;2024-01-06T14:53:25;6.30;99.90
51175;DHT22;37240;50.104;20.010;2024-01-06T14:58:26;6.30;99.90
51175;DHT22;37240;50.104;20.010;2024-01-06T15:03:26;6.10;99.90
51175;DHT22;37240;50.104;20.010;2024-01-06T15:08:27;6.30;99.90
51175;DHT22;37240;50.104;20.010;2024-01-06T15:13:28;6.30;99.90
51175;DHT22;37240;50.104;20.010;2024-01-06T15:18:28;6.30;99.90
51175;DHT22;37240;50.104;20.010;2024-01-06T15:23:29;6.30;99.90
51175;DHT22;37240;50.104;20.010;2024-01-06T15:28:29;6.30;99.90
51175;DHT22;37240;50.104;20.010;2024-01-06T15:33:30;6.20;99.90
51175;DHT22;37240;50.104;20.010;2024-01-06T15:38:31;6.20;99.90
51175;DHT22;37240;50.104;20.010;2024-01-06T15:43:31;6.20;99.90
51175;DHT22;37240;50.104;20.010;2024-01-06T15:48:32;6.20;99.90
51175;DHT22;37240;50.104;20.010;2024-01-06T15:53:32;6.10;99.90
51175;DHT22;37240;50.104;20.010;2024-01-06T15:58:33;6.00;99.90
51175;DHT22;37240;50.104;20.010;2024-01-06T16:03:33;5.90;99.90
51175;DHT22;37240;50.104;20.010;2024-01-06T16:08:34;5.90;99.90
51175;DHT22;37240;50.104;20.010;2024-01-06T16:13:34;5.90;99.90
51175;DHT22;37240;50.104;20.010;2024-01-06T16:18:35;5.90;99.90
51175;DHT22;37240;50.104;20.010;2024-01-06T16:23:35;5.90;99.90
51175;DHT22;37240;50.104;20.010;2024-01-06T16:28:36;5.80;99.90
51175;DHT22;37240;50.104;20.010;2024-01-06T16:33:36;5.90;99.90
51175;DHT22;37240;50.104;20.010;2024-01-06T16:38:37;5.90;99.90
51175;DHT22;37240;50.104;20.010;2024-01-06T16:43:38;5.90;99.90
51175;DHT22;37240;50.104;20.010;2024-01-06T16:48:38;6.00;99.90
51175;DHT22;37240;50.104;20.010;2024-01-06T16:53:39;5.90;99.90
51175;DHT22;37240;50.104;20.010;2024-01-06T16:58:39;5.80;99.90
51175;DHT22;37240;50.104;20.010;2024-01-06T17:03:40;5.90;99.90
51175;DHT22;37240;50.104;20.010;2024-01-06T17:08:40;5.70;99.90
51175;DHT22;37240;50.104;20.010;2024-01-06T17:13:41;5.60;99.90
51175;DHT22;37240;50.104;20.010;2024-01-06T17:18:42;5.60;99.90
51175;DHT22;37240;50.104;20.010;2024-01-06T17:23:43;5.60;99.90
51175;DHT22;37240;50.104;20.010;2024-01-06T17:28:44;5.40;99.90
51175;DHT22;37240;50.104;20.010;2024-01-06T17:33:45;5.30;99.90
51175;DHT22;37240;50.104;20.010;2024-01-06T17:38:45;5.30;99.90
51175;DHT22;37240;50.104;20.010;2024-01-06T17:43:46;5.10;99.90
51175;DHT22;37240;50.104;20.010;2024-01-06T17:48:46;5.00;99.90
51175;DHT22;37240;50.104;20.010;2024-01-06T17:53:47;5.10;99.90
51175;DHT22;37240;50.104;20.010;2024-01-06T17:58:47;5.00;99.90
51175;DHT22;37240;50.104;20.010;2024-01-06T18:03:48;5.10;99.90
51175;DHT22;37240;50.104;20.010;2024-01-06T18:08:49;5.00;99.90
51175;DHT22;37240;50.104;20.010;2024-01-06T18:13:49;4.90;99.90
51175;DHT22;37240;50.104;20.010;2024-01-06T18:18:50;4.80;99.90
51175;DHT22;37240;50.104;20.010;2024-01-06T18:23:50;4.80;99.90
51175;DHT22;37240;50.104;20.010;2024-01-06T18:28:51;4.80;99.90
51175;DHT22;37240;50.104;20.010;2024-01-06T18:33:51;4.80;99.90
51175;DHT22;37240;50.104;20.010;2024-01-06T18:38:52;4.90;99.90
51175;DHT22;37240;50.104;20.010;2024-01-06T18:43:53;4.90;99.90
51175;DHT22;37240;50.104;20.010;2024-01-06T18:48:53;4.90;99.90
51175;DHT22;37240;50.104;20.010;2024-01-06T18:53:54;4.90;99.90
51175;DHT22;37240;50.104;20.010;2024-01-06T18:58:54;4.90;99.90
51175;DHT22;37240;50.104;20.010;2024-01-06T19:03:55;4.60;99.90
51175;DHT22;37240;50.104;20.010;2024-01-06T19:08:55;4.80;99.90
51175;DHT22;37240;50.104;20.010;2024-01-06T19:13:56;4.70;99.90
51175;DHT22;37240;50.104;20.010;2024-01-06T19:18:56;4.70;99.90
51175;DHT22;37240;50.104;20.010;2024-01-06T19:23:57;4.60;99.90
51175;DHT22;37240;50.104;20.010;2024-01-06T19:28:57;4.60;99.90
51175;DHT22;37240;50.104;20.010;2024-01-06T19:33:58;4.50;99.90
51175;DHT22;37240;50.104;20.010;2024-01-06T19:38:59;4.50;99.90
51175;DHT22;37240;50.104;20.010;2024-01-06T19:43:59;4.50;99.90
51175;DHT22;37240;50.104;20.010;2024-01-06T19:49:00;4.60;99.90
51175;DHT22;37240;50.104;20.010;2024-01-06T19:54:00;4.50;99.90
51175;DHT22;37240;50.104;20.010;2024-01-06T19:59:01;4.40;99.90
51175;DHT22;37240;50.104;20.010;2024-01-06T20:04:01;4.50;99.90
51175;DHT22;37240;50.104;20.010;2024-01-06T20:09:02;4.50;99.90
51175;DHT22;37240;50.104;20.010;2024-01-06T20:14:03;4.20;99.90
51175;DHT22;37240;50.104;20.010;2024-01-06T20:19:03;4.10;99.90
51175;DHT22;37240;50.104;20.010;2024-01-06T20:24:04;4.00;99.90
51175;DHT22;37240;50.104;20.010;2024-01-06T20:29:04;4.00;99.90
51175;DHT22;37240;50.104;20.010;2024-01-06T20:34:05;4.10;99.90
51175;DHT22;37240;50.104;20.010;2024-01-06T20:39:05;4.10;99.90
51175;DHT22;37240;50.104;20.010;2024-01-06T20:44:06;4.10;99.90
51175;DHT22;37240;50.104;20.010;2024-01-06T20:49:06;4.10;99.90
51175;DHT22;37240;50.104;20.010;2024-01-06T20:54:07;4.00;99.90
51175;DHT22;37240;50.104;20.010;2024-01-06T20:59:08;3.90;99.90
51175;DHT22;37240;50.104;20.010;2024-01-06T21:04:08;3.70;99.90
51175;DHT22;37240;50.104;20.010;2024-01-06T21:09:09;3.60;99.90
51175;DHT22;37240;50.104;20.010;2024-01-06T21:14:11;3.80;99.90
51175;DHT22;37240;50.104;20.010;2024-01-06T21:19:11;3.50;99.90
51175;DHT22;37240;50.104;20.010;2024-01-06T21:24:12;3.50;99.90
51175;DHT22;37240;50.104;20.010;2024-01-06T21:29:12;3.50;99.90
51175;DHT22;37240;50.104;20.010;2024-01-06T21:34:13;3.30;99.90
51175;DHT22;37240;50.104;20.010;2024-01-06T21:39:13;3.30;99.90
51175;DHT22;37240;50.104;20.010;2024-01-06T21:44:14;3.40;99.90
51175;DHT22;37240;50.104;20.010;2024-01-06T21:49:15;3.50;99.90
51175;DHT22;37240;50.104;20.010;2024-01-06T21:54:15;3.60;99.90
51175;DHT22;37240;50.104;20.010;2024-01-06T21:59:16;3.40;99.90
51175;DHT22;37240;50.104;20.010;2024-01-06T22:04:16;3.40;99.90
51175;DHT22;37240;50.104;20.010;2024-01-06T22:09:17;3.50;99.90
51175;DHT22;37240;50.104;20.010;2024-01-06T22:14:18;3.50;99.90
51175;DHT22;37240;50.104;20.010;2024-01-06T22:19:18;3.30;99.90
51175;DHT22;37240;50.104;20.010;2024-01-06T22:24:19;3.30;99.90
51175;DHT22;37240;50.104;20.010;2024-01-06T22:29:19;3.20;99.90
51175;DHT22;37240;50.104;20.010;2024-01-06T22:34:20;3.30;99.90
51175;DHT22;37240;50.104;20.010;2024-01-06T22:39:21;3.20;99.90
51175;DHT22;37240;50.104;20.010;2024-01-06T22:44:21;3.00;99.90
51175;DHT22;37240;50.104;20.010;2024-01-06T22:49:22;3.00;99.90
51175;DHT22;37240;50.104;20.010;2024-01-06T22:54:22;2.90;99.90
51175;DHT22;37240;50.104;20.010;2024-01-06T22:59:23;2.80;99.90
51175;DHT22;37240;50.104;20.010;2024-01-06T23:04:23;2.80;99.90
51175;DHT22;37240;50.104;20.010;2024-01-06T23:09:24;2.70;99.90
51175;DHT22;37240;50.104;20.010;2024-01-06T23:14:24;2.80;99.90
51175;DHT22;37240;50.104;20.010;2024-01-06T23:19:25;2.70;99.90
51175;DHT22;37240;50.104;20.010;2024-01-06T23:24:25;2.70;99.90
51175;DHT22;37240;50.104;20.010;2024-01-06T23:29:26;2.60;99.90
51175;DHT22;37240;50.104;20.010;2024-01-06T23:34:26;2.60;99.90
51175;DHT22;37240;50.104;20.010;2024-01-06T23:39:27;2.60;99.90
51175;DHT22;37240;50.104;20.010;2024-01-06T23:44:27;2.70;99.90
51175;DHT22;37240;50.104;20.010;2024-01-06T23:49:28;2.60;99.90
51175;DHT22;37240;50.104;20.010;2024-01-06T23:54:28;2.60;99.90
51175;DHT22;37240;50.104;20.010;2024-01-06T23:59:29;2.80;99.90
